Time;durP1;ratioP1;P1;durP2;ratioP2;P2;SDS_P1;SDS_P2;PMS_P1;PMS_P2;Temp;Humidity;BMP_temperature;BMP_pressure;BME280_temperature;BME280_humidity;BME280_pressure;Samples;Min_cycle;Max_cycle;Signal;HPM_P1;HPM_P2
2021/06/09 00:01:15;;;;;;;2.73;2.00;;;15.10;99.90;;;;;;5076575;28;20194;-48
2021/06/09 00:03:41;;;;;;;1.70;1.60;;;15.10;99.90;;;;;;5078695;28;20198;-50
2021/06/09 00:06:07;;;;;;;1.47;1.37;;;15.00;99.90;;;;;;5081924;28;20190;-48
2021/06/09 00:08:35;;;;;;;1.73;1.63;;;15.00;99.90;;;;;;5076527;28;20190;-51
2021/06/09 00:11:01;;;;;;;2.07;1.87;;;15.00;99.90;;;;;;5073952;28;20198;-50
2021/06/09 00:13:30;;;;;;;2.13;2.03;;;15.00;99.90;;;;;;5077567;28;20190;-52
2021/06/09 00:15:57;;;;;;;2.23;1.83;;;14.90;99.90;;;;;;5060219;28;20932;-49
2021/06/09 00:18:23;;;;;;;2.30;1.73;;;14.90;99.90;;;;;;5067140;28;20198;-51
2021/06/09 00:20:51;;;;;;;1.77;1.67;;;14.90;99.90;;;;;;5077980;28;20276;-47
2021/06/09 00:23:20;;;;;;;3.63;2.00;;;14.90;99.90;;;;;;5078953;28;20191;-49
2021/06/09 00:25:50;;;;;;;2.70;2.20;;;14.90;99.90;;;;;;5061645;28;20334;-48
2021/06/09 00:28:16;;;;;;;2.40;2.17;;;14.90;99.90;;;;;;5081720;28;20718;-49
2021/06/09 00:30:43;;;;;;;3.07;2.20;;;14.70;99.90;;;;;;5078971;28;20214;-45
2021/06/09 00:33:10;;;;;;;1.97;1.87;;;14.60;99.90;;;;;;5079987;28;20197;-50
2021/06/09 00:35:36;;;;;;;1.80;1.70;;;14.60;99.90;;;;;;5060151;28;20225;-50
2021/06/09 00:38:03;;;;;;;4.13;2.00;;;14.70;99.90;;;;;;5076279;28;20190;-50
2021/06/09 00:40:30;;;;;;;2.10;1.90;;;14.70;99.90;;;;;;5070683;28;20225;-48
2021/06/09 00:43:07;;;;;;;2.47;1.70;;;14.70;99.90;;;;;;5083686;28;20450;-52
2021/06/09 00:45:34;;;;;;;1.90;1.80;;;14.70;99.90;;;;;;5084727;28;20208;-46
2021/06/09 00:48:00;;;;;;;6.33;2.00;;;14.70;99.90;;;;;;5072092;28;20191;-49
2021/06/09 00:50:26;;;;;;;2.50;1.80;;;14.80;99.90;;;;;;5085271;28;20210;-48
2021/06/09 00:52:52;;;;;;;1.67;1.57;;;14.70;99.90;;;;;;5082513;28;20178;-47
2021/06/09 00:55:19;;;;;;;1.73;1.57;;;14.60;99.90;;;;;;5071712;28;20224;-49
2021/06/09 00:57:46;;;;;;;2.40;1.77;;;14.50;99.90;;;;;;5077809;28;20205;-50
2021/06/09 01:00:14;;;;;;;2.97;1.93;;;14.40;99.90;;;;;;5085847;28;20210;-48
2021/06/09 01:02:40;;;;;;;1.63;1.53;;;14.40;99.90;;;;;;5083583;28;20254;-50
2021/06/09 01:05:07;;;;;;;2.20;2.00;;;14.40;99.90;;;;;;5083212;28;20205;-48
2021/06/09 01:07:37;;;;;;;1.70;1.60;;;14.30;99.90;;;;;;5084065;28;20192;-48
2021/06/09 01:10:05;;;;;;;2.63;2.23;;;14.30;99.90;;;;;;5069080;28;21100;-49
2021/06/09 01:12:32;;;;;;;4.50;1.83;;;14.30;99.90;;;;;;5080422;28;20198;-48
2021/06/09 01:14:58;;;;;;;1.97;1.87;;;14.40;99.90;;;;;;5081845;28;20214;-48
2021/06/09 01:17:26;;;;;;;1.90;1.70;;;14.30;99.90;;;;;;5078137;28;20203;-50
2021/06/09 01:19:52;;;;;;;1.80;1.70;;;14.10;99.90;;;;;;5077852;28;20462;-47
2021/06/09 01:22:20;;;;;;;3.10;1.57;;;14.10;99.90;;;;;;5085879;28;20244;-48
2021/06/09 01:24:46;;;;;;;2.17;1.97;;;14.10;99.90;;;;;;5081765;28;20190;-46
2021/06/09 01:27:12;;;;;;;2.77;1.70;;;14.20;99.90;;;;;;5063337;28;20210;-51
2021/06/09 01:29:41;;;;;;;2.20;1.50;;;14.20;99.90;;;;;;5082798;28;20206;-49
2021/06/09 01:32:08;;;;;;;1.80;1.70;;;14.30;99.90;;;;;;5084961;28;20186;-50
2021/06/09 01:34:34;;;;;;;1.77;1.60;;;14.30;99.90;;;;;;5071135;28;20248;-48
2021/06/09 01:37:01;;;;;;;1.70;1.60;;;14.20;99.90;;;;;;5066510;28;20321;-52
2021/06/09 01:39:28;;;;;;;2.10;1.60;;;14.10;99.90;;;;;;5084975;28;20852;-48
2021/06/09 01:41:54;;;;;;;1.90;1.80;;;14.10;99.90;;;;;;5067332;28;20984;-50
2021/06/09 01:44:21;;;;;;;1.70;1.50;;;14.00;99.90;;;;;;5081872;28;20942;-48
2021/06/09 01:46:47;;;;;;;1.83;1.73;;;13.90;99.90;;;;;;5081891;28;20206;-49
2021/06/09 01:49:15;;;;;;;1.80;1.70;;;13.90;99.90;;;;;;5070947;28;20333;-50
2021/06/09 01:51:41;;;;;;;1.83;1.73;;;13.90;99.90;;;;;;5085274;28;20556;-48
2021/06/09 01:54:09;;;;;;;1.70;1.60;;;14.00;99.90;;;;;;5081846;28;20838;-46
2021/06/09 01:56:37;;;;;;;4.33;2.33;;;13.90;99.90;;;;;;5069760;28;20202;-47
2021/06/09 01:59:10;;;;;;;2.00;1.80;;;13.80;99.90;;;;;;5079541;28;20221;-46
2021/06/09 02:01:36;;;;;;;3.27;1.90;;;13.80;99.90;;;;;;5084532;28;20656;-45
2021/06/09 02:04:03;;;;;;;3.20;1.83;;;13.80;99.90;;;;;;5083239;28;20198;-47
2021/06/09 02:06:29;;;;;;;1.90;1.80;;;13.80;99.90;;;;;;5080532;28;20874;-48
2021/06/09 02:08:55;;;;;;;2.43;1.43;;;13.80;99.90;;;;;;5063563;28;20222;-48
2021/06/09 02:11:21;;;;;;;2.20;1.97;;;13.80;99.90;;;;;;5050289;28;22262;-47
2021/06/09 02:13:50;;;;;;;1.70;1.60;;;13.80;99.90;;;;;;5085042;28;20205;-49
2021/06/09 02:16:16;;;;;;;1.87;1.77;;;13.80;99.90;;;;;;5079956;28;20210;-50
2021/06/09 02:18:42;;;;;;;2.60;1.70;;;13.80;99.90;;;;;;5071492;28;20296;-47
2021/06/09 02:21:08;;;;;;;1.73;1.63;;;13.80;99.90;;;;;;5081228;28;20765;-47
2021/06/09 02:23:35;;;;;;;2.83;1.73;;;13.80;99.90;;;;;;5083965;28;20216;-50
2021/06/09 02:26:02;;;;;;;1.97;1.63;;;13.80;99.90;;;;;;5080623;28;20190;-48
2021/06/09 02:28:32;;;;;;;2.00;1.80;;;13.80;99.90;;;;;;5062726;28;20835;-51
2021/06/09 02:31:00;;;;;;;1.80;1.70;;;13.70;99.90;;;;;;5082891;28;20208;-48
2021/06/09 02:33:27;;;;;;;4.63;1.97;;;13.60;99.90;;;;;;5082297;28;20186;-48
2021/06/09 02:35:56;;;;;;;1.70;1.60;;;13.60;99.90;;;;;;5084297;28;20236;-50
2021/06/09 02:38:22;;;;;;;2.40;2.20;;;13.60;99.90;;;;;;5062328;28;20996;-48
2021/06/09 02:40:51;;;;;;;2.13;1.90;;;13.50;99.90;;;;;;5063722;28;20660;-48
2021/06/09 02:43:18;;;;;;;1.70;1.60;;;13.40;99.90;;;;;;5048386;28;20202;-48
2021/06/09 02:45:49;;;;;;;2.40;1.80;;;13.40;99.90;;;;;;5081123;28;20198;-47
2021/06/09 02:48:19;;;;;;;1.80;1.70;;;13.40;99.90;;;;;;5079560;28;20186;-47
2021/06/09 02:50:45;;;;;;;3.17;1.80;;;13.50;99.90;;;;;;5083293;28;20217;-46
2021/06/09 02:53:17;;;;;;;2.50;2.00;;;13.60;99.90;;;;;;5080572;28;20686;-47
2021/06/09 02:55:57;;;;;;;2.83;1.90;;;13.50;99.90;;;;;;5084216;28;20210;-47
2021/06/09 02:58:32;;;;;;;1.93;1.83;;;13.50;99.90;;;;;;5061337;28;20916;-48
2021/06/09 03:01:05;;;;;;;1.93;1.60;;;13.50;99.90;;;;;;5064438;28;20197;-49
2021/06/09 03:03:45;;;;;;;1.60;1.50;;;13.50;99.90;;;;;;5081145;28;20254;-49
2021/06/09 03:06:20;;;;;;;1.80;1.70;;;13.60;99.90;;;;;;5078075;28;20274;-47
2021/06/09 03:08:54;;;;;;;1.97;1.87;;;13.50;99.90;;;;;;5063128;28;20237;-47
2021/06/09 03:11:27;;;;;;;2.03;1.90;;;13.40;99.90;;;;;;5059737;28;20197;-47
2021/06/09 03:14:01;;;;;;;2.30;2.10;;;13.30;99.90;;;;;;5064887;28;20201;-48
2021/06/09 03:16:31;;;;;;;1.70;1.60;;;13.20;99.90;;;;;;5071791;28;20209;-47
2021/06/09 03:19:04;;;;;;;3.53;1.80;;;13.30;99.90;;;;;;5082070;28;20217;-47
2021/06/09 03:21:39;;;;;;;2.20;2.00;;;13.40;99.90;;;;;;5081471;28;21013;-48
2021/06/09 03:24:10;;;;;;;2.00;1.90;;;13.40;99.90;;;;;;5071433;28;20667;-48
2021/06/09 03:26:43;;;;;;;3.30;1.70;;;13.40;99.90;;;;;;5073232;28;20230;-51
2021/06/09 03:29:12;;;;;;;2.20;2.00;;;13.30;99.90;;;;;;5067505;28;20558;-47
2021/06/09 03:31:45;;;;;;;2.13;2.03;;;13.20;99.90;;;;;;5063189;28;20258;-47
2021/06/09 03:34:18;;;;;;;2.27;1.93;;;13.20;99.90;;;;;;5079176;28;20205;-49
2021/06/09 03:36:45;;;;;;;2.63;2.03;;;13.10;99.90;;;;;;5078451;28;20229;-50
2021/06/09 03:39:14;;;;;;;2.37;1.80;;;13.10;99.90;;;;;;5058751;28;20218;-45
2021/06/09 03:41:44;;;;;;;2.73;1.80;;;13.20;99.90;;;;;;5063140;28;20706;-49
2021/06/09 03:44:13;;;;;;;2.30;1.90;;;13.20;99.90;;;;;;5059588;28;20272;-51
2021/06/09 03:46:41;;;;;;;2.20;2.00;;;13.20;99.90;;;;;;5054721;28;20213;-50
2021/06/09 03:49:11;;;;;;;1.83;1.73;;;13.20;99.90;;;;;;5076258;28;20282;-48
2021/06/09 03:51:42;;;;;;;2.67;2.10;;;13.10;99.90;;;;;;5082637;28;20633;-52
2021/06/09 03:54:10;;;;;;;1.90;1.80;;;13.10;99.90;;;;;;5062325;28;20220;-50
2021/06/09 03:56:39;;;;;;;2.20;2.10;;;13.20;99.90;;;;;;5064092;28;20707;-46
2021/06/09 03:59:06;;;;;;;1.77;1.67;;;13.30;99.90;;;;;;5080225;28;20238;-48
2021/06/09 04:01:35;;;;;;;2.30;2.10;;;13.40;99.90;;;;;;5067012;28;20202;-50
2021/06/09 04:04:04;;;;;;;2.67;2.47;;;13.30;99.90;;;;;;5081126;28;20208;-49
2021/06/09 04:06:31;;;;;;;2.13;1.70;;;13.30;99.90;;;;;;5079595;28;20186;-47
2021/06/09 04:09:01;;;;;;;1.90;1.80;;;13.30;99.90;;;;;;5061516;28;20225;-48
2021/06/09 04:11:29;;;;;;;2.47;2.27;;;13.40;99.90;;;;;;5060289;28;20262;-49
2021/06/09 04:13:57;;;;;;;2.23;1.90;;;13.40;99.90;;;;;;5061740;28;20190;-50
2021/06/09 04:16:26;;;;;;;1.93;1.83;;;13.50;99.90;;;;;;5059392;28;20959;-51
2021/06/09 04:18:54;;;;;;;2.17;2.00;;;13.50;99.90;;;;;;5063593;28;20225;-50
2021/06/09 04:21:21;;;;;;;1.87;1.77;;;13.50;99.90;;;;;;5078659;28;20250;-48
2021/06/09 04:23:47;;;;;;;2.03;1.93;;;13.50;99.90;;;;;;5068242;28;20686;-50
2021/06/09 04:26:16;;;;;;;3.53;2.23;;;13.60;99.90;;;;;;5058811;28;20201;-49
2021/06/09 04:28:43;;;;;;;2.00;1.90;;;13.60;99.90;;;;;;5061577;28;20594;-48
2021/06/09 04:31:12;;;;;;;2.03;1.93;;;13.70;99.90;;;;;;5063613;28;20205;-48
2021/06/09 04:33:39;;;;;;;2.47;2.10;;;13.70;99.90;;;;;;5066112;28;20234;-52
2021/06/09 04:36:10;;;;;;;1.80;1.70;;;13.80;99.90;;;;;;5074352;28;20214;-50
2021/06/09 04:38:38;;;;;;;1.80;1.70;;;13.80;99.90;;;;;;5081500;28;20864;-51
2021/06/09 04:41:04;;;;;;;2.10;1.90;;;13.80;99.90;;;;;;5078657;28;20196;-47
2021/06/09 04:43:32;;;;;;;2.10;2.00;;;13.90;99.90;;;;;;5071736;28;20704;-50
2021/06/09 04:45:58;;;;;;;2.10;2.00;;;13.90;99.90;;;;;;5058382;28;20969;-48
2021/06/09 04:48:24;;;;;;;2.00;1.90;;;14.00;99.90;;;;;;5062234;28;20562;-50
2021/06/09 04:50:51;;;;;;;3.03;2.10;;;14.00;99.90;;;;;;5059018;28;20218;-49
2021/06/09 04:53:19;;;;;;;2.07;1.60;;;14.10;99.90;;;;;;5075875;28;20202;-48
2021/06/09 04:55:47;;;;;;;2.67;2.30;;;14.10;99.90;;;;;;5079651;28;20218;-51
2021/06/09 04:58:15;;;;;;;2.23;2.10;;;14.20;99.90;;;;;;5078868;28;20184;-50
2021/06/09 05:00:44;;;;;;;2.93;1.80;;;14.20;99.90;;;;;;5080457;28;20210;-49
2021/06/09 05:03:11;;;;;;;2.10;2.00;;;14.40;99.90;;;;;;5073650;28;21085;-46
2021/06/09 05:05:37;;;;;;;1.67;1.57;;;14.50;99.90;;;;;;5067292;28;20263;-48
2021/06/09 05:08:04;;;;;;;4.63;2.40;;;14.60;99.90;;;;;;5073876;28;20190;-47
2021/06/09 05:10:33;;;;;;;1.80;1.67;;;14.60;99.90;;;;;;5081877;28;20213;-47
2021/06/09 05:13:05;;;;;;;2.63;2.17;;;14.60;99.90;;;;;;5072476;28;20267;-47
2021/06/09 05:15:36;;;;;;;2.47;1.90;;;14.70;99.90;;;;;;5062251;28;20305;-51
2021/06/09 05:18:10;;;;;;;2.20;2.10;;;14.80;99.90;;;;;;5055889;28;20210;-51
2021/06/09 05:20:39;;;;;;;1.80;1.70;;;14.90;99.90;;;;;;5056547;28;20230;-51
2021/06/09 05:23:09;;;;;;;2.07;1.97;;;15.00;99.90;;;;;;5071857;28;22644;-50
2021/06/09 05:25:37;;;;;;;1.70;1.47;;;15.00;99.90;;;;;;5078678;28;20187;-48
2021/06/09 05:28:06;;;;;;;2.57;2.10;;;15.10;99.90;;;;;;5072129;28;20195;-50
2021/06/09 05:30:33;;;;;;;1.63;1.53;;;15.20;99.90;;;;;;5063855;28;20330;-49
2021/06/09 05:33:02;;;;;;;3.17;1.93;;;15.30;99.90;;;;;;5062124;28;20199;-47
2021/06/09 05:35:30;;;;;;;1.87;1.77;;;15.40;99.90;;;;;;5060011;28;20283;-46
2021/06/09 05:37:57;;;;;;;2.70;1.40;;;15.60;99.90;;;;;;5069707;28;20202;-49
2021/06/09 05:40:23;;;;;;;3.07;1.70;;;15.70;99.90;;;;;;5076688;28;20216;-50
2021/06/09 05:42:49;;;;;;;1.97;1.87;;;15.90;99.90;;;;;;5077903;28;20186;-51
2021/06/09 05:45:25;;;;;;;3.10;1.90;;;16.00;99.90;;;;;;5065162;28;20637;-48
2021/06/09 05:47:51;;;;;;;3.07;1.90;;;16.10;99.90;;;;;;5060714;28;20257;-49
2021/06/09 05:50:18;;;;;;;1.70;1.60;;;16.20;99.90;;;;;;5065932;28;20225;-51
2021/06/09 05:52:47;;;;;;;2.23;1.90;;;16.20;99.90;;;;;;5076848;28;20186;-48
2021/06/09 05:55:15;;;;;;;3.23;2.07;;;16.30;99.90;;;;;;5084822;28;20628;-49
2021/06/09 05:57:41;;;;;;;2.07;1.87;;;16.40;99.90;;;;;;5079746;28;20627;-50
2021/06/09 06:00:09;;;;;;;1.87;1.77;;;16.50;99.90;;;;;;5082466;28;20296;-50
2021/06/09 06:02:38;;;;;;;4.07;1.70;;;16.70;99.90;;;;;;5081957;28;20220;-47
2021/06/09 06:05:05;;;;;;;2.10;1.70;;;16.90;99.90;;;;;;5080321;28;20190;-47
2021/06/09 06:07:33;;;;;;;6.23;2.10;;;17.00;99.90;;;;;;5069428;28;20214;-50
2021/06/09 06:10:01;;;;;;;4.83;2.30;;;17.20;99.90;;;;;;5073062;28;20228;-48
2021/06/09 06:12:28;;;;;;;11.43;3.40;;;17.40;99.90;;;;;;5077606;28;20190;-50
2021/06/09 06:14:54;;;;;;;4.37;1.67;;;17.60;99.90;;;;;;5080836;28;20197;-49
2021/06/09 06:17:21;;;;;;;4.03;1.37;;;17.80;99.90;;;;;;5084410;28;20694;-50
2021/06/09 06:19:49;;;;;;;2.40;1.83;;;17.90;99.90;;;;;;5078544;28;20214;-47
2021/06/09 06:22:16;;;;;;;2.80;1.53;;;17.90;99.90;;;;;;5061071;28;20206;-49
2021/06/09 06:24:44;;;;;;;1.97;1.40;;;18.00;99.90;;;;;;5078433;28;20946;-49
2021/06/09 06:27:12;;;;;;;2.67;1.60;;;18.10;99.90;;;;;;5075717;28;20749;-48
2021/06/09 06:29:39;;;;;;;1.93;1.40;;;18.20;99.90;;;;;;5067555;28;20850;-50
2021/06/09 06:32:07;;;;;;;7.17;2.30;;;18.30;99.90;;;;;;5074706;28;21283;-47
2021/06/09 06:34:37;;;;;;;1.73;1.17;;;18.40;99.90;;;;;;5072573;28;20219;-47
2021/06/09 06:37:04;;;;;;;1.57;1.20;;;18.50;99.90;;;;;;5072696;28;20213;-53
2021/06/09 06:39:31;;;;;;;2.60;1.40;;;18.60;99.90;;;;;;5057162;28;20225;-48
2021/06/09 06:41:57;;;;;;;2.83;1.30;;;18.70;99.90;;;;;;5070913;28;20201;-49
2021/06/09 06:44:25;;;;;;;1.67;1.20;;;18.70;99.90;;;;;;5073637;28;20206;-48
2021/06/09 06:46:52;;;;;;;1.60;1.50;;;18.80;99.90;;;;;;5073014;28;20580;-48
2021/06/09 06:49:19;;;;;;;2.20;1.50;;;18.90;99.90;;;;;;5060722;28;20654;-48
2021/06/09 06:51:46;;;;;;;3.23;1.50;;;19.00;99.90;;;;;;5062507;28;20236;-51
2021/06/09 06:54:13;;;;;;;4.73;1.40;;;19.10;99.90;;;;;;5065532;28;20202;-51
2021/06/09 06:56:40;;;;;;;3.03;1.50;;;19.20;99.90;;;;;;5072434;28;20702;-52
2021/06/09 06:59:06;;;;;;;1.47;1.37;;;19.30;99.90;;;;;;5082760;28;20214;-51
2021/06/09 07:01:35;;;;;;;2.03;1.23;;;19.40;99.90;;;;;;5080327;28;20189;-47
2021/06/09 07:04:03;;;;;;;4.40;2.03;;;19.50;99.90;;;;;;5072760;28;20568;-47
2021/06/09 07:06:29;;;;;;;9.63;2.60;;;19.50;99.90;;;;;;5076152;28;21313;-51
2021/06/09 07:08:56;;;;;;;3.03;1.40;;;19.60;99.90;;;;;;5066986;28;20221;-47
2021/06/09 07:11:23;;;;;;;1.57;1.47;;;19.70;99.90;;;;;;5064772;28;20183;-49
2021/06/09 07:13:51;;;;;;;5.97;1.60;;;19.70;99.90;;;;;;5077447;28;20206;-47
2021/06/09 07:16:18;;;;;;;2.20;2.00;;;19.80;99.90;;;;;;5072296;28;20233;-46
2021/06/09 07:18:46;;;;;;;3.17;1.60;;;20.00;99.90;;;;;;5073957;28;20237;-53
2021/06/09 07:21:14;;;;;;;1.60;1.50;;;20.20;99.50;;;;;;5073620;28;20195;-45
2021/06/09 07:23:41;;;;;;;5.33;1.40;;;20.30;99.40;;;;;;5074219;28;20208;-46
2021/06/09 07:26:08;;;;;;;2.77;1.30;;;20.40;99.00;;;;;;5064714;28;20734;-49
2021/06/09 07:28:40;;;;;;;2.43;1.60;;;20.40;98.90;;;;;;5063427;28;20205;-46
2021/06/09 07:31:08;;;;;;;4.03;2.13;;;20.50;98.70;;;;;;5079184;28;20198;-48
2021/06/09 07:33:34;;;;;;;2.17;1.30;;;20.70;97.30;;;;;;5067985;28;20183;-48
2021/06/09 07:36:05;;;;;;;2.70;1.57;;;20.80;96.90;;;;;;5061143;28;20280;-46
2021/06/09 07:38:34;;;;;;;3.40;1.30;;;20.80;95.70;;;;;;5058650;28;20202;-48
2021/06/09 07:41:03;;;;;;;4.63;1.33;;;21.00;94.60;;;;;;5058519;28;20214;-49
2021/06/09 07:43:33;;;;;;;1.80;1.30;;;21.00;94.80;;;;;;5073649;28;20202;-47
2021/06/09 07:45:59;;;;;;;6.50;2.97;;;21.00;94.70;;;;;;5078803;28;20213;-46
2021/06/09 07:48:28;;;;;;;2.33;1.20;;;21.10;93.90;;;;;;5074366;28;20909;-47
2021/06/09 07:50:58;;;;;;;2.60;1.23;;;21.10;93.90;;;;;;5074036;28;20198;-46
2021/06/09 07:53:26;;;;;;;2.30;1.30;;;21.10;93.80;;;;;;5071314;28;20190;-50
2021/06/09 07:55:53;;;;;;;3.23;1.43;;;21.20;93.50;;;;;;5062882;28;20270;-47
2021/06/09 07:58:22;;;;;;;2.20;1.20;;;21.20;93.00;;;;;;5073284;28;20202;-48
2021/06/09 08:00:52;;;;;;;1.53;1.10;;;21.20;92.20;;;;;;5077760;28;20225;-47
2021/06/09 08:03:18;;;;;;;1.50;1.40;;;21.20;91.90;;;;;;5073596;28;20186;-47
2021/06/09 08:05:45;;;;;;;1.27;1.13;;;21.20;91.50;;;;;;5077254;28;20527;-50
2021/06/09 08:08:12;;;;;;;1.43;1.00;;;21.30;92.10;;;;;;5069243;28;20207;-46
2021/06/09 08:10:41;;;;;;;3.13;1.10;;;21.40;92.20;;;;;;5074885;28;20344;-50
2021/06/09 08:13:07;;;;;;;2.27;1.17;;;21.40;91.10;;;;;;5055140;28;20292;-46
2021/06/09 08:15:35;;;;;;;2.43;1.00;;;21.40;91.50;;;;;;5075300;28;20218;-49
2021/06/09 08:18:03;;;;;;;1.90;1.20;;;21.60;91.30;;;;;;5078572;28;20202;-49
2021/06/09 08:20:30;;;;;;;1.43;1.10;;;21.60;90.50;;;;;;5066016;28;20294;-49
2021/06/09 08:22:57;;;;;;;3.23;1.10;;;21.70;88.00;;;;;;5069872;28;20200;-47
2021/06/09 08:25:24;;;;;;;3.20;0.97;;;21.80;88.00;;;;;;5064158;28;20191;-51
2021/06/09 08:27:53;;;;;;;1.97;1.17;;;21.90;85.40;;;;;;5055863;28;20292;-51
2021/06/09 08:30:22;;;;;;;1.77;1.00;;;22.00;87.10;;;;;;5068432;28;20838;-44
2021/06/09 08:32:48;;;;;;;1.80;1.20;;;22.10;86.10;;;;;;5081968;28;20473;-50
2021/06/09 08:35:15;;;;;;;3.53;1.30;;;22.20;86.10;;;;;;5069462;28;20678;-49
2021/06/09 08:37:41;;;;;;;1.67;1.00;;;22.20;86.70;;;;;;5081369;28;20189;-51
2021/06/09 08:40:10;;;;;;;4.37;1.10;;;22.20;83.50;;;;;;5061921;28;20211;-48
2021/06/09 08:42:38;;;;;;;3.23;1.20;;;22.30;84.60;;;;;;5080722;28;20192;-48
2021/06/09 08:45:08;;;;;;;2.20;1.10;;;22.30;84.60;;;;;;5065351;28;20207;-47
2021/06/09 08:47:36;;;;;;;2.73;0.97;;;22.40;82.70;;;;;;5074766;28;20186;-48
2021/06/09 08:50:04;;;;;;;1.83;1.03;;;22.50;83.40;;;;;;5073841;28;20253;-50
2021/06/09 08:52:31;;;;;;;5.03;1.10;;;22.60;80.10;;;;;;5078243;28;20205;-50
2021/06/09 08:54:57;;;;;;;2.43;0.80;;;22.70;78.60;;;;;;5067390;28;20198;-53
2021/06/09 08:57:23;;;;;;;1.27;0.90;;;22.80;78.80;;;;;;5073193;28;20222;-46
2021/06/09 08:59:49;;;;;;;8.70;1.77;;;22.90;77.70;;;;;;5065267;28;20222;-51
2021/06/09 09:02:17;;;;;;;2.38;1.15;;;23.10;76.20;;;;;;5077727;28;20213;-51
2021/06/09 09:04:43;;;;;;;3.77;1.17;;;23.10;74.50;;;;;;5083593;28;20194;-54
2021/06/09 09:07:11;;;;;;;3.58;0.90;;;22.90;73.80;;;;;;5076936;28;20263;-46
2021/06/09 09:09:38;;;;;;;1.98;0.98;;;23.00;77.00;;;;;;5081232;28;20671;-53
2021/06/09 09:12:05;;;;;;;1.93;1.20;;;23.00;77.40;;;;;;5082508;28;20188;-49
2021/06/09 09:14:31;;;;;;;1.20;1.00;;;23.10;77.40;;;;;;5083018;28;20190;-48
2021/06/09 09:17:05;;;;;;;1.08;0.98;;;23.20;74.00;;;;;;5061882;28;20295;-51
2021/06/09 09:19:35;;;;;;;1.60;1.10;;;23.20;72.80;;;;;;5084111;28;20228;-51
2021/06/09 09:22:01;;;;;;;1.30;1.20;;;23.20;72.20;;;;;;5077343;28;20273;-52
2021/06/09 09:24:39;;;;;;;2.88;1.20;;;23.20;73.90;;;;;;5068074;28;20194;-52
2021/06/09 09:27:06;;;;;;;1.25;1.00;;;23.20;72.60;;;;;;5071592;28;20772;-50
2021/06/09 09:29:32;;;;;;;1.48;1.25;;;23.30;72.20;;;;;;5077342;28;20271;-48
2021/06/09 09:32:00;;;;;;;3.50;1.10;;;23.30;70.40;;;;;;5052786;28;20218;-52
2021/06/09 09:34:35;;;;;;;1.15;1.10;;;23.30;70.80;;;;;;5078539;28;20198;-46
2021/06/09 09:37:04;;;;;;;1.15;1.00;;;23.30;71.80;;;;;;5077552;28;20216;-50
2021/06/09 09:39:31;;;;;;;1.88;0.90;;;23.20;71.10;;;;;;5076601;28;20228;-47
2021/06/09 09:41:57;;;;;;;1.50;1.20;;;23.20;71.40;;;;;;5081424;28;20739;-51
2021/06/09 09:44:23;;;;;;;1.45;1.13;;;23.20;70.70;;;;;;5066913;28;20195;-54
2021/06/09 09:46:53;;;;;;;0.80;0.80;;;23.30;69.10;;;;;;5062586;28;20255;-49
2021/06/09 09:49:20;;;;;;;0.75;0.75;;;23.30;68.70;;;;;;5079087;28;20225;-54
2021/06/09 09:52:00;;;;;;;1.83;0.98;;;23.40;69.30;;;;;;5075125;28;20191;-51
2021/06/09 09:54:28;;;;;;;1.95;1.00;;;23.40;69.70;;;;;;5065275;28;20224;-52
2021/06/09 09:56:55;;;;;;;1.70;1.15;;;23.50;68.40;;;;;;5077162;28;20218;-50
2021/06/09 09:59:25;;;;;;;1.10;1.00;;;23.70;69.60;;;;;;5081963;28;20703;-52
2021/06/09 10:01:52;;;;;;;1.73;1.00;;;23.90;69.00;;;;;;5061436;28;20210;-50
2021/06/09 10:04:20;;;;;;;1.00;1.00;;;24.00;69.20;;;;;;5077175;28;20230;-54
2021/06/09 10:06:49;;;;;;;3.03;1.17;;;24.10;69.10;;;;;;5077492;28;20225;-51
2021/06/09 10:09:18;;;;;;;1.00;1.00;;;24.00;67.00;;;;;;5075923;28;20214;-47
2021/06/09 10:11:46;;;;;;;3.83;1.45;;;24.00;66.90;;;;;;5075697;28;20201;-49
2021/06/09 10:14:21;;;;;;;1.30;1.20;;;24.10;67.90;;;;;;5079562;28;20745;-47
2021/06/09 10:16:51;;;;;;;2.33;1.20;;;24.10;65.00;;;;;;5079456;28;20205;-48
2021/06/09 10:19:18;;;;;;;1.52;1.38;;;24.10;67.40;;;;;;5069156;28;20226;-49
2021/06/09 10:21:51;;;;;;;1.80;1.40;;;24.10;65.50;;;;;;5069789;28;20202;-50
2021/06/09 10:24:19;;;;;;;1.35;1.25;;;24.10;65.00;;;;;;5083300;28;20426;-53
2021/06/09 10:26:52;;;;;;;2.80;1.88;;;24.10;67.30;;;;;;5069141;28;20304;-49
2021/06/09 10:29:21;;;;;;;2.28;1.70;;;24.10;66.80;;;;;;5085308;28;20741;-52
2021/06/09 10:31:49;;;;;;;2.58;2.30;;;24.10;68.00;;;;;;5077211;28;20202;-46
2021/06/09 10:34:15;;;;;;;2.33;2.15;;;24.10;67.70;;;;;;5066229;28;20205;-47
2021/06/09 10:36:46;;;;;;;2.20;2.00;;;24.30;69.10;;;;;;5072451;28;20222;-47
2021/06/09 10:39:13;;;;;;;2.90;2.30;;;24.30;67.80;;;;;;5075460;28;20594;-54
2021/06/09 10:41:43;;;;;;;5.85;1.58;;;24.20;68.10;;;;;;5079350;28;20199;-50
2021/06/09 10:44:11;;;;;;;4.20;1.50;;;24.20;69.50;;;;;;5080908;28;20210;-51
2021/06/09 10:46:44;;;;;;;2.42;2.22;;;24.30;67.90;;;;;;5070267;28;20225;-49
2021/06/09 10:49:14;;;;;;;3.05;2.80;;;24.40;66.80;;;;;;5059143;28;20218;-54
2021/06/09 10:51:40;;;;;;;4.25;2.60;;;24.40;66.90;;;;;;5078763;28;20625;-48
2021/06/09 10:54:11;;;;;;;2.72;2.47;;;24.40;67.40;;;;;;5076150;28;20210;-54
2021/06/09 10:56:37;;;;;;;2.92;2.22;;;24.40;68.80;;;;;;5082143;28;20209;-46
2021/06/09 10:59:05;;;;;;;2.28;2.13;;;24.50;69.20;;;;;;5075517;28;20271;-54
2021/06/09 11:01:32;;;;;;;2.47;2.28;;;24.60;69.20;;;;;;5075034;28;20198;-48
2021/06/09 11:04:00;;;;;;;2.80;2.60;;;24.60;68.40;;;;;;5066230;28;20210;-51
2021/06/09 11:06:42;;;;;;;3.30;2.67;;;24.60;67.10;;;;;;5071442;28;21069;-48
2021/06/09 11:09:16;;;;;;;2.88;2.20;;;24.50;65.20;;;;;;5067177;28;20213;-54
2021/06/09 11:11:44;;;;;;;2.42;2.20;;;24.40;66.10;;;;;;5076533;28;20212;-52
2021/06/09 11:14:26;;;;;;;2.58;2.15;;;24.50;67.70;;;;;;5070708;28;20198;-52
2021/06/09 11:16:54;;;;;;;4.38;2.63;;;24.60;67.00;;;;;;5071328;28;20267;-50
2021/06/09 11:19:40;;;;;;;2.90;2.70;;;24.70;69.00;;;;;;5060183;28;20235;-51
2021/06/09 11:22:21;;;;;;;2.35;2.25;;;24.90;67.00;;;;;;5076504;28;20276;-54
2021/06/09 11:25:10;;;;;;;2.15;2.03;;;25.10;67.10;;;;;;5077121;28;20229;-51
2021/06/09 11:27:37;;;;;;;2.75;2.55;;;25.20;67.50;;;;;;5076265;28;20198;-50
2021/06/09 11:33:05;;;;;;;2.10;2.00;;;25.20;66.40;;;;;;5140536;27;20329;-54
2021/06/09 11:35:43;;;;;;;2.00;1.80;;;25.30;68.50;;;;;;5123761;27;20279;-48
2021/06/09 11:38:19;;;;;;;1.80;1.70;;;25.40;67.00;;;;;;5141884;27;20206;-50
2021/06/09 11:40:50;;;;;;;1.92;1.80;;;25.30;66.60;;;;;;5143183;27;20211;-51
2021/06/09 11:43:17;;;;;;;2.00;1.77;;;25.30;65.50;;;;;;5134499;27;20199;-52
2021/06/09 11:45:51;;;;;;;2.85;2.65;;;25.30;65.30;;;;;;5129838;27;20203;-52
2021/06/09 11:48:22;;;;;;;2.70;1.90;;;25.50;63.90;;;;;;5139628;27;20203;-50
2021/06/09 11:50:51;;;;;;;3.95;2.38;;;25.40;63.80;;;;;;5118832;27;20234;-53
2021/06/09 11:53:36;;;;;;;2.85;2.55;;;25.50;65.70;;;;;;5127863;27;20318;-47
2021/06/09 11:56:14;;;;;;;2.35;2.20;;;25.50;65.10;;;;;;5129671;27;20206;-46
2021/06/09 11:58:41;;;;;;;2.20;1.95;;;25.40;64.80;;;;;;5126642;27;20195;-49
2021/06/09 12:01:09;;;;;;;3.70;2.08;;;25.40;66.00;;;;;;5132838;27;20239;-47
2021/06/09 12:03:39;;;;;;;2.55;2.40;;;25.50;65.20;;;;;;5129701;27;20533;-53
2021/06/09 12:06:18;;;;;;;4.75;4.07;;;25.40;64.70;;;;;;5120824;27;20219;-47
2021/06/09 12:08:45;;;;;;;2.92;2.72;;;25.30;62.10;;;;;;5121228;27;20887;-46
2021/06/09 12:11:12;;;;;;;4.25;2.50;;;25.20;63.70;;;;;;5140319;27;20221;-49
2021/06/09 12:13:38;;;;;;;3.83;2.88;;;25.20;64.20;;;;;;5115102;27;20275;-47
2021/06/09 12:16:07;;;;;;;2.63;2.42;;;25.30;63.40;;;;;;5144573;27;20207;-46
2021/06/09 12:18:33;;;;;;;2.20;2.05;;;25.30;62.60;;;;;;5135328;27;20632;-54
2021/06/09 12:21:09;;;;;;;2.83;2.63;;;25.30;63.40;;;;;;5129400;27;20196;-52
2021/06/09 12:23:36;;;;;;;2.58;2.38;;;25.40;61.80;;;;;;5125083;27;20206;-51
2021/06/09 12:26:03;;;;;;;2.30;2.10;;;25.40;62.60;;;;;;5132224;27;20287;-47
2021/06/09 12:28:30;;;;;;;5.38;3.38;;;25.30;62.20;;;;;;5118679;27;20191;-57
2021/06/09 12:30:58;;;;;;;2.85;2.65;;;25.50;62.30;;;;;;5137611;27;20208;-54
2021/06/09 12:33:35;;;;;;;2.58;2.45;;;25.60;61.80;;;;;;5121889;27;20196;-57
2021/06/09 12:36:01;;;;;;;2.30;2.10;;;25.50;62.50;;;;;;5135081;27;20196;-54
2021/06/09 12:38:29;;;;;;;2.55;2.45;;;25.40;62.90;;;;;;5113866;27;20207;-57
2021/06/09 12:40:56;;;;;;;2.47;2.38;;;25.40;63.50;;;;;;5129423;27;20200;-51
2021/06/09 12:43:24;;;;;;;2.72;2.30;;;25.60;63.20;;;;;;5119388;27;20695;-56
2021/06/09 12:45:52;;;;;;;2.42;2.22;;;25.90;62.40;;;;;;5119176;27;20197;-47
2021/06/09 12:48:21;;;;;;;4.30;2.80;;;25.80;62.70;;;;;;5117532;27;20211;-54
2021/06/09 12:50:49;;;;;;;2.10;2.00;;;26.00;61.50;;;;;;5120197;27;20930;-51
2021/06/09 12:53:17;;;;;;;3.55;2.00;;;26.40;62.20;;;;;;5100257;27;20761;-50
2021/06/09 12:55:46;;;;;;;2.85;2.65;;;26.60;61.40;;;;;;5112526;27;20205;-51
2021/06/09 12:58:19;;;;;;;2.45;2.25;;;26.40;60.00;;;;;;5123694;27;20204;-52